sensor_id;sensor_type;location;lat;lon;timestamp;P1;durP1;ratioP1;P2;durP2;ratioP2
41653;SDS011;30790;52.030;7.110;2022-10-04T00:01:27;3.57;;;1.20;;
41653;SDS011;30790;52.030;7.110;2022-10-04T00:06:51;3.60;;;1.13;;
41653;SDS011;30790;52.030;7.110;2022-10-04T00:09:19;2.45;;;1.20;;
41653;SDS011;30790;52.030;7.110;2022-10-04T00:11:48;2.53;;;1.02;;
41653;SDS011;30790;52.030;7.110;2022-10-04T00:14:18;2.45;;;1.38;;
41653;SDS011;30790;52.030;7.110;2022-10-04T00:16:52;5.32;;;1.23;;
41653;SDS011;30790;52.030;7.110;2022-10-04T00:22:26;3.60;;;1.10;;
41653;SDS011;30790;52.030;7.110;2022-10-04T00:24:36;2.95;;;1.10;;
41653;SDS011;30790;52.030;7.110;2022-10-04T00:27:21;3.35;;;1.23;;
41653;SDS011;30790;52.030;7.110;2022-10-04T00:32:30;1.52;;;1.33;;
41653;SDS011;30790;52.030;7.110;2022-10-04T00:35:45;0.75;;;0.75;;
41653;SDS011;30790;52.030;7.110;2022-10-04T00:38:11;3.13;;;1.00;;
41653;SDS011;30790;52.030;7.110;2022-10-04T00:40:41;2.38;;;1.42;;
41653;SDS011;30790;52.030;7.110;2022-10-04T00:43:23;1.73;;;1.00;;
41653;SDS011;30790;52.030;7.110;2022-10-04T00:45:55;1.42;;;0.95;;
41653;SDS011;30790;52.030;7.110;2022-10-04T00:53:57;0.77;;;0.75;;
41653;SDS011;30790;52.030;7.110;2022-10-04T00:56:36;2.22;;;0.80;;
41653;SDS011;30790;52.030;7.110;2022-10-04T00:59:12;2.55;;;1.00;;
41653;SDS011;30790;52.030;7.110;2022-10-04T01:01:57;2.30;;;0.80;;
41653;SDS011;30790;52.030;7.110;2022-10-04T01:07:06;1.85;;;1.05;;
41653;SDS011;30790;52.030;7.110;2022-10-04T01:09:35;2.88;;;1.30;;
41653;SDS011;30790;52.030;7.110;2022-10-04T01:12:10;1.23;;;1.10;;
41653;SDS011;30790;52.030;7.110;2022-10-04T01:14:58;1.00;;;0.90;;
41653;SDS011;30790;52.030;7.110;2022-10-04T01:17:28;1.83;;;0.80;;
41653;SDS011;30790;52.030;7.110;2022-10-04T01:19:54;1.02;;;0.85;;
41653;SDS011;30790;52.030;7.110;2022-10-04T01:22:33;2.05;;;0.90;;
41653;SDS011;30790;52.030;7.110;2022-10-04T01:25:06;1.08;;;0.98;;
41653;SDS011;30790;52.030;7.110;2022-10-04T01:27:39;1.20;;;1.10;;
41653;SDS011;30790;52.030;7.110;2022-10-04T01:30:12;1.58;;;1.10;;
41653;SDS011;30790;52.030;7.110;2022-10-04T01:32:40;2.80;;;1.20;;
41653;SDS011;30790;52.030;7.110;2022-10-04T01:35:07;1.85;;;1.08;;
41653;SDS011;30790;52.030;7.110;2022-10-04T01:37:35;2.08;;;1.00;;
41653;SDS011;30790;52.030;7.110;2022-10-04T01:40:03;1.17;;;1.08;;
41653;SDS011;30790;52.030;7.110;2022-10-04T01:42:31;1.27;;;0.98;;
41653;SDS011;30790;52.030;7.110;2022-10-04T01:45:12;3.22;;;0.90;;
41653;SDS011;30790;52.030;7.110;2022-10-04T01:47:53;1.63;;;1.05;;
41653;SDS011;30790;52.030;7.110;2022-10-04T01:52:53;2.65;;;0.95;;
41653;SDS011;30790;52.030;7.110;2022-10-04T01:55:26;1.00;;;0.90;;
41653;SDS011;30790;52.030;7.110;2022-10-04T01:57:57;1.55;;;1.10;;
41653;SDS011;30790;52.030;7.110;2022-10-04T02:00:27;2.60;;;1.40;;
41653;SDS011;30790;52.030;7.110;2022-10-04T02:05:43;3.97;;;0.90;;
41653;SDS011;30790;52.030;7.110;2022-10-04T02:08:15;2.15;;;1.15;;
41653;SDS011;30790;52.030;7.110;2022-10-04T02:10:45;1.85;;;1.00;;
41653;SDS011;30790;52.030;7.110;2022-10-04T02:13:14;1.35;;;1.08;;
41653;SDS011;30790;52.030;7.110;2022-10-04T02:15:45;1.70;;;1.00;;
41653;SDS011;30790;52.030;7.110;2022-10-04T02:18:18;1.35;;;0.90;;
41653;SDS011;30790;52.030;7.110;2022-10-04T02:20:46;1.88;;;0.93;;
41653;SDS011;30790;52.030;7.110;2022-10-04T02:23:14;1.25;;;0.93;;
41653;SDS011;30790;52.030;7.110;2022-10-04T02:25:42;1.75;;;0.80;;
41653;SDS011;30790;52.030;7.110;2022-10-04T02:28:08;1.55;;;1.08;;
41653;SDS011;30790;52.030;7.110;2022-10-04T02:30:39;4.75;;;1.20;;
41653;SDS011;30790;52.030;7.110;2022-10-04T02:33:08;3.92;;;1.02;;
41653;SDS011;30790;52.030;7.110;2022-10-04T02:35:36;1.35;;;0.70;;
41653;SDS011;30790;52.030;7.110;2022-10-04T02:38:24;1.27;;;1.05;;
41653;SDS011;30790;52.030;7.110;2022-10-04T02:41:00;1.50;;;1.00;;
41653;SDS011;30790;52.030;7.110;2022-10-04T02:43:33;2.15;;;1.13;;
41653;SDS011;30790;52.030;7.110;2022-10-04T02:46:05;2.38;;;0.77;;
41653;SDS011;30790;52.030;7.110;2022-10-04T02:48:50;0.93;;;0.88;;
41653;SDS011;30790;52.030;7.110;2022-10-04T02:51:29;1.45;;;0.80;;
41653;SDS011;30790;52.030;7.110;2022-10-04T02:56:51;2.00;;;1.15;;
41653;SDS011;30790;52.030;7.110;2022-10-04T02:59:19;1.23;;;0.60;;
41653;SDS011;30790;52.030;7.110;2022-10-04T03:01:59;1.88;;;1.00;;
41653;SDS011;30790;52.030;7.110;2022-10-04T03:04:36;1.30;;;0.88;;
41653;SDS011;30790;52.030;7.110;2022-10-04T03:07:04;1.25;;;0.63;;
41653;SDS011;30790;52.030;7.110;2022-10-04T03:09:32;1.02;;;0.93;;
41653;SDS011;30790;52.030;7.110;2022-10-04T03:12:00;1.52;;;0.93;;
41653;SDS011;30790;52.030;7.110;2022-10-04T03:14:28;3.08;;;1.27;;
41653;SDS011;30790;52.030;7.110;2022-10-04T03:16:55;1.55;;;1.10;;
41653;SDS011;30790;52.030;7.110;2022-10-04T03:19:24;2.20;;;1.17;;
41653;SDS011;30790;52.030;7.110;2022-10-04T03:21:53;1.85;;;0.93;;
41653;SDS011;30790;52.030;7.110;2022-10-04T03:24:22;2.75;;;1.13;;
41653;SDS011;30790;52.030;7.110;2022-10-04T03:26:55;2.05;;;0.88;;
41653;SDS011;30790;52.030;7.110;2022-10-04T03:29:23;1.90;;;1.10;;
41653;SDS011;30790;52.030;7.110;2022-10-04T03:31:51;1.60;;;1.30;;
41653;SDS011;30790;52.030;7.110;2022-10-04T03:34:22;1.23;;;0.82;;
41653;SDS011;30790;52.030;7.110;2022-10-04T03:36:51;1.35;;;1.20;;
41653;SDS011;30790;52.030;7.110;2022-10-04T03:39:32;1.70;;;1.00;;
41653;SDS011;30790;52.030;7.110;2022-10-04T03:42:04;1.30;;;0.80;;
41653;SDS011;30790;52.030;7.110;2022-10-04T03:44:34;2.13;;;1.20;;
41653;SDS011;30790;52.030;7.110;2022-10-04T03:47:01;2.08;;;1.13;;
41653;SDS011;30790;52.030;7.110;2022-10-04T03:49:34;0.63;;;0.63;;
41653;SDS011;30790;52.030;7.110;2022-10-04T03:52:01;1.50;;;1.10;;
41653;SDS011;30790;52.030;7.110;2022-10-04T03:54:28;1.40;;;1.00;;
41653;SDS011;30790;52.030;7.110;2022-10-04T03:56:54;2.13;;;0.98;;
41653;SDS011;30790;52.030;7.110;2022-10-04T03:59:22;1.92;;;1.00;;
41653;SDS011;30790;52.030;7.110;2022-10-04T04:02:01;1.33;;;0.90;;
41653;SDS011;30790;52.030;7.110;2022-10-04T04:07:05;1.48;;;0.70;;
41653;SDS011;30790;52.030;7.110;2022-10-04T04:12:19;2.60;;;1.10;;
41653;SDS011;30790;52.030;7.110;2022-10-04T04:14:48;1.35;;;0.85;;
41653;SDS011;30790;52.030;7.110;2022-10-04T04:19:49;1.20;;;1.00;;
41653;SDS011;30790;52.030;7.110;2022-10-04T04:22:15;1.67;;;1.00;;
41653;SDS011;30790;52.030;7.110;2022-10-04T04:24:42;3.10;;;1.48;;
41653;SDS011;30790;52.030;7.110;2022-10-04T04:27:08;2.63;;;1.40;;
41653;SDS011;30790;52.030;7.110;2022-10-04T04:29:42;2.20;;;1.05;;
41653;SDS011;30790;52.030;7.110;2022-10-04T04:32:18;1.77;;;1.10;;
41653;SDS011;30790;52.030;7.110;2022-10-04T04:34:51;1.93;;;1.00;;
41653;SDS011;30790;52.030;7.110;2022-10-04T04:37:20;2.58;;;0.93;;
41653;SDS011;30790;52.030;7.110;2022-10-04T04:39:48;1.38;;;1.20;;
41653;SDS011;30790;52.030;7.110;2022-10-04T04:42:20;2.38;;;1.13;;
41653;SDS011;30790;52.030;7.110;2022-10-04T04:44:57;2.30;;;1.20;;
41653;SDS011;30790;52.030;7.110;2022-10-04T04:47:36;2.05;;;1.17;;
41653;SDS011;30790;52.030;7.110;2022-10-04T04:50:11;0.88;;;0.88;;
41653;SDS011;30790;52.030;7.110;2022-10-04T04:52:37;1.73;;;1.13;;
41653;SDS011;30790;52.030;7.110;2022-10-04T04:55:04;1.02;;;0.98;;
41653;SDS011;30790;52.030;7.110;2022-10-04T04:57:30;3.17;;;1.23;;
41653;SDS011;30790;52.030;7.110;2022-10-04T04:59:58;1.17;;;0.95;;
41653;SDS011;30790;52.030;7.110;2022-10-04T05:02:32;3.03;;;1.20;;
41653;SDS011;30790;52.030;7.110;2022-10-04T05:05:13;1.13;;;1.05;;
41653;SDS011;30790;52.030;7.110;2022-10-04T05:07:42;2.17;;;0.98;;
41653;SDS011;30790;52.030;7.110;2022-10-04T05:12:54;1.55;;;1.00;;
41653;SDS011;30790;52.030;7.110;2022-10-04T05:15:20;1.35;;;0.90;;
41653;SDS011;30790;52.030;7.110;2022-10-04T05:17:46;1.88;;;1.10;;
41653;SDS011;30790;52.030;7.110;2022-10-04T05:20:12;2.35;;;1.48;;
41653;SDS011;30790;52.030;7.110;2022-10-04T05:22:40;1.40;;;1.05;;
41653;SDS011;30790;52.030;7.110;2022-10-04T05:25:13;1.63;;;0.85;;
41653;SDS011;30790;52.030;7.110;2022-10-04T05:27:42;2.47;;;0.75;;
41653;SDS011;30790;52.030;7.110;2022-10-04T05:35:41;1.67;;;0.93;;
41653;SDS011;30790;52.030;7.110;2022-10-04T05:44:15;6.68;;;1.35;;
41653;SDS011;30790;52.030;7.110;2022-10-04T05:46:43;2.42;;;1.38;;
41653;SDS011;30790;52.030;7.110;2022-10-04T05:49:12;4.82;;;1.23;;
41653;SDS011;30790;52.030;7.110;2022-10-04T05:51:49;2.97;;;1.30;;
41653;SDS011;30790;52.030;7.110;2022-10-04T05:54:25;2.90;;;1.57;;
41653;SDS011;30790;52.030;7.110;2022-10-04T06:02:30;5.65;;;1.83;;
41653;SDS011;30790;52.030;7.110;2022-10-04T06:05:12;3.90;;;1.20;;
41653;SDS011;30790;52.030;7.110;2022-10-04T06:21:36;3.42;;;1.40;;
41653;SDS011;30790;52.030;7.110;2022-10-04T06:24:32;6.05;;;1.70;;
41653;SDS011;30790;52.030;7.110;2022-10-04T06:27:09;5.10;;;1.73;;
41653;SDS011;30790;52.030;7.110;2022-10-04T06:29:42;3.13;;;1.30;;
41653;SDS011;30790;52.030;7.110;2022-10-04T06:46:41;10.77;;;1.65;;
41653;SDS011;30790;52.030;7.110;2022-10-04T06:49:21;7.03;;;1.73;;
41653;SDS011;30790;52.030;7.110;2022-10-04T06:52:29;10.75;;;2.47;;
41653;SDS011;30790;52.030;7.110;2022-10-04T06:58:10;6.25;;;1.90;;
41653;SDS011;30790;52.030;7.110;2022-10-04T07:00:48;6.07;;;1.75;;
41653;SDS011;30790;52.030;7.110;2022-10-04T07:03:23;4.88;;;1.67;;
41653;SDS011;30790;52.030;7.110;2022-10-04T07:06:02;8.05;;;2.13;;
41653;SDS011;30790;52.030;7.110;2022-10-04T07:08:35;4.28;;;1.90;;
41653;SDS011;30790;52.030;7.110;2022-10-04T07:11:23;6.78;;;1.80;;
41653;SDS011;30790;52.030;7.110;2022-10-04T07:16:42;9.98;;;2.50;;
41653;SDS011;30790;52.030;7.110;2022-10-04T07:24:23;18.17;;;3.00;;
41653;SDS011;30790;52.030;7.110;2022-10-04T07:26:53;6.82;;;2.47;;
41653;SDS011;30790;52.030;7.110;2022-10-04T07:29:23;11.20;;;2.42;;
41653;SDS011;30790;52.030;7.110;2022-10-04T07:32:02;4.47;;;2.28;;
41653;SDS011;30790;52.030;7.110;2022-10-04T07:34:30;10.75;;;2.83;;
41653;SDS011;30790;52.030;7.110;2022-10-04T07:37:00;7.38;;;2.58;;
41653;SDS011;30790;52.030;7.110;2022-10-04T07:39:37;7.57;;;2.15;;
41653;SDS011;30790;52.030;7.110;2022-10-04T07:42:14;7.80;;;2.80;;
41653;SDS011;30790;52.030;7.110;2022-10-04T07:44:58;17.70;;;3.30;;
41653;SDS011;30790;52.030;7.110;2022-10-04T07:47:24;12.10;;;3.13;;
41653;SDS011;30790;52.030;7.110;2022-10-04T07:49:52;10.38;;;2.80;;
41653;SDS011;30790;52.030;7.110;2022-10-04T07:52:30;9.80;;;2.50;;
41653;SDS011;30790;52.030;7.110;2022-10-04T07:55:23;8.20;;;2.90;;
41653;SDS011;30790;52.030;7.110;2022-10-04T08:06:32;14.10;;;2.72;;
41653;SDS011;30790;52.030;7.110;2022-10-04T08:09:17;9.32;;;2.70;;
41653;SDS011;30790;52.030;7.110;2022-10-04T08:15:07;3.75;;;2.20;;
41653;SDS011;30790;52.030;7.110;2022-10-04T08:17:47;5.78;;;2.40;;
41653;SDS011;30790;52.030;7.110;2022-10-04T08:23:17;9.27;;;2.28;;
41653;SDS011;30790;52.030;7.110;2022-10-04T08:25:59;11.13;;;2.53;;
41653;SDS011;30790;52.030;7.110;2022-10-04T08:49:37;8.38;;;2.30;;
41653;SDS011;30790;52.030;7.110;2022-10-04T08:52:38;9.23;;;2.40;;
41653;SDS011;30790;52.030;7.110;2022-10-04T08:58:11;7.70;;;2.45;;
41653;SDS011;30790;52.030;7.110;2022-10-04T09:22:45;10.30;;;2.90;;
41653;SDS011;30790;52.030;7.110;2022-10-04T09:31:15;11.73;;;3.22;;
41653;SDS011;30790;52.030;7.110;2022-10-04T09:39:19;11.00;;;3.55;;
41653;SDS011;30790;52.030;7.110;2022-10-04T10:04:46;13.45;;;3.80;;
41653;SDS011;30790;52.030;7.110;2022-10-04T10:10:15;12.65;;;3.67;;
41653;SDS011;30790;52.030;7.110;2022-10-04T10:13:12;9.63;;;4.18;;
41653;SDS011;30790;52.030;7.110;2022-10-04T10:16:19;15.07;;;3.67;;
41653;SDS011;30790;52.030;7.110;2022-10-04T10:29:23;16.83;;;3.47;;
41653;SDS011;30790;52.030;7.110;2022-10-04T10:32:06;13.82;;;3.83;;
41653;SDS011;30790;52.030;7.110;2022-10-04T10:37:56;13.57;;;4.20;;
41653;SDS011;30790;52.030;7.110;2022-10-04T10:51:54;16.80;;;4.88;;
41653;SDS011;30790;52.030;7.110;2022-10-04T10:57:23;15.57;;;5.35;;
41653;SDS011;30790;52.030;7.110;2022-10-04T11:00:00;14.23;;;4.88;;
41653;SDS011;30790;52.030;7.110;2022-10-04T11:03:02;17.38;;;5.00;;
41653;SDS011;30790;52.030;7.110;2022-10-04T11:05:49;16.75;;;3.97;;
41653;SDS011;30790;52.030;7.110;2022-10-04T11:14:11;14.73;;;4.10;;
41653;SDS011;30790;52.030;7.110;2022-10-04T11:23:02;10.50;;;3.67;;
41653;SDS011;30790;52.030;7.110;2022-10-04T11:26:09;7.75;;;3.55;;
41653;SDS011;30790;52.030;7.110;2022-10-04T11:28:51;25.38;;;4.53;;
41653;SDS011;30790;52.030;7.110;2022-10-04T11:46:09;14.45;;;4.35;;
41653;SDS011;30790;52.030;7.110;2022-10-04T11:54:45;11.95;;;4.25;;
41653;SDS011;30790;52.030;7.110;2022-10-04T11:57:47;18.75;;;4.13;;
41653;SDS011;30790;52.030;7.110;2022-10-04T12:00:24;8.90;;;3.33;;
41653;SDS011;30790;52.030;7.110;2022-10-04T12:06:12;9.77;;;3.72;;
41653;SDS011;30790;52.030;7.110;2022-10-04T12:09:17;24.80;;;4.57;;
41653;SDS011;30790;52.030;7.110;2022-10-04T12:17:48;16.05;;;4.22;;
41653;SDS011;30790;52.030;7.110;2022-10-04T12:23:37;13.02;;;4.13;;
41653;SDS011;30790;52.030;7.110;2022-10-04T12:31:32;15.75;;;4.72;;
41653;SDS011;30790;52.030;7.110;2022-10-04T12:42:12;21.58;;;4.50;;
41653;SDS011;30790;52.030;7.110;2022-10-04T12:45:00;15.90;;;4.72;;
41653;SDS011;30790;52.030;7.110;2022-10-04T12:50:53;15.13;;;4.30;;
41653;SDS011;30790;52.030;7.110;2022-10-04T12:56:10;17.00;;;4.43;;
41653;SDS011;30790;52.030;7.110;2022-10-04T12:58:52;12.50;;;4.57;;
41653;SDS011;30790;52.030;7.110;2022-10-04T13:01:32;17.25;;;4.20;;
41653;SDS011;30790;52.030;7.110;2022-10-04T13:04:13;15.25;;;4.60;;
41653;SDS011;30790;52.030;7.110;2022-10-04T13:07:01;11.80;;;3.70;;
41653;SDS011;30790;52.030;7.110;2022-10-04T13:21:22;10.82;;;3.72;;
41653;SDS011;30790;52.030;7.110;2022-10-04T13:24:30;9.05;;;3.35;;
41653;SDS011;30790;52.030;7.110;2022-10-04T13:27:27;14.45;;;4.20;;
41653;SDS011;30790;52.030;7.110;2022-10-04T13:30:22;10.52;;;3.67;;
41653;SDS011;30790;52.030;7.110;2022-10-04T13:33:01;11.95;;;3.70;;
41653;SDS011;30790;52.030;7.110;2022-10-04T13:44:12;10.13;;;4.05;;
41653;SDS011;30790;52.030;7.110;2022-10-04T13:52:15;7.70;;;4.05;;
41653;SDS011;30790;52.030;7.110;2022-10-04T13:55:18;8.95;;;3.35;;
41653;SDS011;30790;52.030;7.110;2022-10-04T13:58:12;13.37;;;3.93;;
41653;SDS011;30790;52.030;7.110;2022-10-04T14:09:24;12.73;;;3.53;;
41653;SDS011;30790;52.030;7.110;2022-10-04T14:12:37;8.20;;;3.80;;
41653;SDS011;30790;52.030;7.110;2022-10-04T14:29:54;10.23;;;3.70;;
41653;SDS011;30790;52.030;7.110;2022-10-04T14:32:38;14.00;;;4.47;;
41653;SDS011;30790;52.030;7.110;2022-10-04T14:35:25;10.32;;;4.10;;
41653;SDS011;30790;52.030;7.110;2022-10-04T14:49:19;14.45;;;3.92;;
41653;SDS011;30790;52.030;7.110;2022-10-04T14:54:38;10.93;;;3.85;;
41653;SDS011;30790;52.030;7.110;2022-10-04T15:03:04;12.60;;;4.35;;
41653;SDS011;30790;52.030;7.110;2022-10-04T15:14:26;13.95;;;4.80;;
41653;SDS011;30790;52.030;7.110;2022-10-04T15:17:23;16.40;;;4.95;;
41653;SDS011;30790;52.030;7.110;2022-10-04T15:19:58;17.73;;;4.28;;
41653;SDS011;30790;52.030;7.110;2022-10-04T15:22:40;23.08;;;5.05;;
41653;SDS011;30790;52.030;7.110;2022-10-04T15:34:00;13.88;;;4.57;;
41653;SDS011;30790;52.030;7.110;2022-10-04T15:37:07;18.92;;;4.13;;
41653;SDS011;30790;52.030;7.110;2022-10-04T15:47:58;20.77;;;4.70;;
41653;SDS011;30790;52.030;7.110;2022-10-04T16:09:59;12.45;;;4.18;;
41653;SDS011;30790;52.030;7.110;2022-10-04T16:12:55;16.88;;;4.20;;
41653;SDS011;30790;52.030;7.110;2022-10-04T16:15:44;12.52;;;4.63;;
41653;SDS011;30790;52.030;7.110;2022-10-04T16:21:09;14.20;;;4.57;;
41653;SDS011;30790;52.030;7.110;2022-10-04T16:24:25;18.52;;;4.97;;
41653;SDS011;30790;52.030;7.110;2022-10-04T16:32:30;15.55;;;4.70;;
41653;SDS011;30790;52.030;7.110;2022-10-04T16:38:06;20.17;;;5.00;;
41653;SDS011;30790;52.030;7.110;2022-10-04T16:48:33;16.45;;;4.50;;
41653;SDS011;30790;52.030;7.110;2022-10-04T17:05:17;13.00;;;4.95;;
41653;SDS011;30790;52.030;7.110;2022-10-04T17:21:39;16.73;;;5.03;;
41653;SDS011;30790;52.030;7.110;2022-10-04T17:32:21;8.93;;;4.13;;
41653;SDS011;30790;52.030;7.110;2022-10-04T17:41:55;13.02;;;4.13;;
41653;SDS011;30790;52.030;7.110;2022-10-04T17:44:03;10.65;;;3.53;;
41653;SDS011;30790;52.030;7.110;2022-10-04T17:49:22;11.82;;;3.88;;
41653;SDS011;30790;52.030;7.110;2022-10-04T17:52:29;9.38;;;3.83;;
41653;SDS011;30790;52.030;7.110;2022-10-04T17:55:25;16.60;;;3.80;;
41653;SDS011;30790;52.030;7.110;2022-10-04T17:57:59;8.93;;;4.10;;
41653;SDS011;30790;52.030;7.110;2022-10-04T18:00:44;10.88;;;3.97;;
41653;SDS011;30790;52.030;7.110;2022-10-04T18:03:24;14.18;;;4.10;;
41653;SDS011;30790;52.030;7.110;2022-10-04T18:05:57;13.02;;;3.42;;
41653;SDS011;30790;52.030;7.110;2022-10-04T18:11:14;11.70;;;3.85;;
41653;SDS011;30790;52.030;7.110;2022-10-04T18:13:49;10.68;;;3.30;;
41653;SDS011;30790;52.030;7.110;2022-10-04T18:16:29;10.38;;;3.70;;
41653;SDS011;30790;52.030;7.110;2022-10-04T18:22:12;8.68;;;3.47;;
41653;SDS011;30790;52.030;7.110;2022-10-04T18:24:39;13.15;;;4.07;;
41653;SDS011;30790;52.030;7.110;2022-10-04T18:27:25;8.25;;;4.05;;
41653;SDS011;30790;52.030;7.110;2022-10-04T18:34:54;9.18;;;3.58;;
41653;SDS011;30790;52.030;7.110;2022-10-04T18:37:33;11.88;;;4.00;;
41653;SDS011;30790;52.030;7.110;2022-10-04T18:42:46;8.20;;;3.97;;
41653;SDS011;30790;52.030;7.110;2022-10-04T18:45:17;10.73;;;3.75;;
41653;SDS011;30790;52.030;7.110;2022-10-04T18:47:46;8.40;;;3.28;;
41653;SDS011;30790;52.030;7.110;2022-10-04T18:53:14;10.48;;;4.00;;
41653;SDS011;30790;52.030;7.110;2022-10-04T18:56:00;11.80;;;3.80;;
41653;SDS011;30790;52.030;7.110;2022-10-04T19:04:34;11.57;;;3.38;;
41653;SDS011;30790;52.030;7.110;2022-10-04T19:07:06;7.70;;;3.80;;
41653;SDS011;30790;52.030;7.110;2022-10-04T19:12:22;11.85;;;3.47;;
41653;SDS011;30790;52.030;7.110;2022-10-04T19:14:53;9.35;;;3.45;;
41653;SDS011;30790;52.030;7.110;2022-10-04T19:17:49;7.40;;;3.50;;
41653;SDS011;30790;52.030;7.110;2022-10-04T19:20:28;9.68;;;3.58;;
41653;SDS011;30790;52.030;7.110;2022-10-04T19:22:59;7.57;;;3.25;;
41653;SDS011;30790;52.030;7.110;2022-10-04T19:25:39;12.93;;;3.65;;
41653;SDS011;30790;52.030;7.110;2022-10-04T19:31:05;6.70;;;3.40;;
41653;SDS011;30790;52.030;7.110;2022-10-04T19:34:02;9.98;;;3.63;;
41653;SDS011;30790;52.030;7.110;2022-10-04T19:44:02;10.40;;;3.47;;
41653;SDS011;30790;52.030;7.110;2022-10-04T19:49:25;11.60;;;4.40;;
41653;SDS011;30790;52.030;7.110;2022-10-04T19:52:25;8.80;;;3.40;;
41653;SDS011;30790;52.030;7.110;2022-10-04T19:55:15;6.90;;;3.20;;
41653;SDS011;30790;52.030;7.110;2022-10-04T19:57:49;11.30;;;3.63;;
41653;SDS011;30790;52.030;7.110;2022-10-04T20:00:16;9.57;;;3.88;;
41653;SDS011;30790;52.030;7.110;2022-10-04T20:02:44;9.20;;;3.40;;
41653;SDS011;30790;52.030;7.110;2022-10-04T20:05:10;11.18;;;3.75;;
41653;SDS011;30790;52.030;7.110;2022-10-04T20:07:46;12.40;;;3.30;;
41653;SDS011;30790;52.030;7.110;2022-10-04T20:10:27;9.07;;;3.20;;
41653;SDS011;30790;52.030;7.110;2022-10-04T20:18:03;13.10;;;3.55;;
41653;SDS011;30790;52.030;7.110;2022-10-04T20:26:02;14.88;;;4.18;;
41653;SDS011;30790;52.030;7.110;2022-10-04T20:30:59;16.00;;;3.42;;
41653;SDS011;30790;52.030;7.110;2022-10-04T20:35:58;10.15;;;3.30;;
41653;SDS011;30790;52.030;7.110;2022-10-04T20:43:53;7.97;;;3.78;;
41653;SDS011;30790;52.030;7.110;2022-10-04T20:46:23;7.88;;;3.83;;
41653;SDS011;30790;52.030;7.110;2022-10-04T20:48:50;7.47;;;3.00;;
41653;SDS011;30790;52.030;7.110;2022-10-04T20:51:18;8.25;;;3.20;;
41653;SDS011;30790;52.030;7.110;2022-10-04T20:53:44;8.70;;;3.22;;
41653;SDS011;30790;52.030;7.110;2022-10-04T20:56:17;6.15;;;2.78;;
41653;SDS011;30790;52.030;7.110;2022-10-04T20:58:51;10.02;;;3.72;;
41653;SDS011;30790;52.030;7.110;2022-10-04T21:01:23;8.85;;;3.58;;
41653;SDS011;30790;52.030;7.110;2022-10-04T21:09:45;7.38;;;2.88;;
41653;SDS011;30790;52.030;7.110;2022-10-04T21:15:03;7.07;;;3.90;;
41653;SDS011;30790;52.030;7.110;2022-10-04T21:19:56;9.20;;;3.47;;
41653;SDS011;30790;52.030;7.110;2022-10-04T21:27:34;8.17;;;3.20;;
41653;SDS011;30790;52.030;7.110;2022-10-04T21:30:05;6.00;;;3.13;;
41653;SDS011;30790;52.030;7.110;2022-10-04T21:32:36;6.45;;;3.15;;
41653;SDS011;30790;52.030;7.110;2022-10-04T21:35:02;6.63;;;3.20;;
41653;SDS011;30790;52.030;7.110;2022-10-04T21:37:29;6.47;;;3.30;;
41653;SDS011;30790;52.030;7.110;2022-10-04T21:39:55;5.50;;;3.05;;
41653;SDS011;30790;52.030;7.110;2022-10-04T21:42:20;12.98;;;3.22;;
41653;SDS011;30790;52.030;7.110;2022-10-04T21:44:46;5.43;;;3.03;;
41653;SDS011;30790;52.030;7.110;2022-10-04T21:47:11;8.73;;;3.72;;
41653;SDS011;30790;52.030;7.110;2022-10-04T21:49:37;7.82;;;3.08;;
41653;SDS011;30790;52.030;7.110;2022-10-04T21:52:02;5.93;;;2.88;;
41653;SDS011;30790;52.030;7.110;2022-10-04T21:54:28;6.63;;;3.17;;
41653;SDS011;30790;52.030;7.110;2022-10-04T21:56:53;7.70;;;3.15;;
41653;SDS011;30790;52.030;7.110;2022-10-04T21:59:19;5.70;;;3.30;;
41653;SDS011;30790;52.030;7.110;2022-10-04T22:01:45;6.47;;;3.45;;
41653;SDS011;30790;52.030;7.110;2022-10-04T22:04:10;8.18;;;3.10;;
41653;SDS011;30790;52.030;7.110;2022-10-04T22:06:35;5.55;;;2.92;;
41653;SDS011;30790;52.030;7.110;2022-10-04T22:09:00;6.72;;;3.03;;
41653;SDS011;30790;52.030;7.110;2022-10-04T22:11:26;9.68;;;2.85;;
41653;SDS011;30790;52.030;7.110;2022-10-04T22:13:51;6.93;;;3.03;;
41653;SDS011;30790;52.030;7.110;2022-10-04T22:16:16;4.40;;;2.33;;
41653;SDS011;30790;52.030;7.110;2022-10-04T22:18:41;4.40;;;2.92;;
41653;SDS011;30790;52.030;7.110;2022-10-04T22:21:07;5.60;;;3.03;;
41653;SDS011;30790;52.030;7.110;2022-10-04T22:23:36;7.35;;;2.97;;
41653;SDS011;30790;52.030;7.110;2022-10-04T22:26:10;6.32;;;2.72;;
41653;SDS011;30790;52.030;7.110;2022-10-04T22:28:37;4.78;;;2.70;;
41653;SDS011;30790;52.030;7.110;2022-10-04T22:31:11;4.60;;;2.80;;
41653;SDS011;30790;52.030;7.110;2022-10-04T22:33:38;5.10;;;2.97;;
41653;SDS011;30790;52.030;7.110;2022-10-04T22:36:21;5.75;;;2.65;;
41653;SDS011;30790;52.030;7.110;2022-10-04T22:38:59;4.55;;;2.55;;
41653;SDS011;30790;52.030;7.110;2022-10-04T22:41:52;5.10;;;2.92;;
41653;SDS011;30790;52.030;7.110;2022-10-04T22:44:24;5.22;;;3.03;;
41653;SDS011;30790;52.030;7.110;2022-10-04T22:46:54;4.88;;;3.13;;
41653;SDS011;30790;52.030;7.110;2022-10-04T22:49:23;6.70;;;2.85;;
41653;SDS011;30790;52.030;7.110;2022-10-04T22:51:53;4.35;;;2.50;;
41653;SDS011;30790;52.030;7.110;2022-10-04T22:54:24;4.35;;;2.92;;
41653;SDS011;30790;52.030;7.110;2022-10-04T22:56:52;6.22;;;2.83;;
41653;SDS011;30790;52.030;7.110;2022-10-04T22:59:18;4.57;;;2.50;;
41653;SDS011;30790;52.030;7.110;2022-10-04T23:01:45;4.60;;;2.30;;
41653;SDS011;30790;52.030;7.110;2022-10-04T23:04:21;6.25;;;3.00;;
41653;SDS011;30790;52.030;7.110;2022-10-04T23:06:48;5.45;;;2.80;;
41653;SDS011;30790;52.030;7.110;2022-10-04T23:09:13;8.63;;;2.50;;
41653;SDS011;30790;52.030;7.110;2022-10-04T23:11:39;4.15;;;2.58;;
41653;SDS011;30790;52.030;7.110;2022-10-04T23:14:04;5.20;;;2.50;;
41653;SDS011;30790;52.030;7.110;2022-10-04T23:16:29;3.83;;;2.38;;
41653;SDS011;30790;52.030;7.110;2022-10-04T23:19:14;5.85;;;3.05;;
41653;SDS011;30790;52.030;7.110;2022-10-04T23:21:43;6.63;;;2.97;;
41653;SDS011;30790;52.030;7.110;2022-10-04T23:24:20;4.95;;;2.70;;
41653;SDS011;30790;52.030;7.110;2022-10-04T23:26:48;5.15;;;2.40;;
41653;SDS011;30790;52.030;7.110;2022-10-04T23:29:20;5.00;;;2.92;;
41653;SDS011;30790;52.030;7.110;2022-10-04T23:31:50;5.55;;;2.83;;
41653;SDS011;30790;52.030;7.110;2022-10-04T23:34:18;6.28;;;2.40;;
41653;SDS011;30790;52.030;7.110;2022-10-04T23:36:52;4.80;;;2.30;;
41653;SDS011;30790;52.030;7.110;2022-10-04T23:39:21;4.88;;;2.53;;
41653;SDS011;30790;52.030;7.110;2022-10-04T23:41:49;4.68;;;2.75;;
41653;SDS011;30790;52.030;7.110;2022-10-04T23:44:15;2.90;;;2.53;;
41653;SDS011;30790;52.030;7.110;2022-10-04T23:46:41;4.72;;;2.28;;
41653;SDS011;30790;52.030;7.110;2022-10-04T23:49:12;4.72;;;2.72;;
41653;SDS011;30790;52.030;7.110;2022-10-04T23:51:40;5.95;;;3.08;;
41653;SDS011;30790;52.030;7.110;2022-10-04T23:54:09;4.68;;;2.72;;
41653;SDS011;30790;52.030;7.110;2022-10-04T23:56:37;3.15;;;2.25;;
41653;SDS011;30790;52.030;7.110;2022-10-04T23:59:02;4.20;;;2.35;;
